sensor_id;sensor_type;location;lat;lon;timestamp;pressure;altitude;pressure_sealevel;temperature;humidity
21109;BME280;10712;52.944;9.098;2022-11-09T00:02:10;100474.75;;;20.37;49.87
21109;BME280;10712;52.944;9.098;2022-11-09T00:04:35;100479.16;;;20.38;49.84
21109;BME280;10712;52.944;9.098;2022-11-09T00:07:01;100470.03;;;20.39;49.77
21109;BME280;10712;52.944;9.098;2022-11-09T00:09:27;100477.09;;;20.40;50.02
21109;BME280;10712;52.944;9.098;2022-11-09T00:11:53;100486.25;;;20.39;49.81
21109;BME280;10712;52.944;9.098;2022-11-09T00:14:19;100478.28;;;20.38;50.11
21109;BME280;10712;52.944;9.098;2022-11-09T00:16:45;100475.75;;;20.36;50.29
21109;BME280;10712;52.944;9.098;2022-11-09T00:19:11;100479.75;;;20.32;50.16
21109;BME280;10712;52.944;9.098;2022-11-09T00:21:39;100479.75;;;20.32;49.81
21109;BME280;10712;52.944;9.098;2022-11-09T00:24:05;100481.75;;;20.30;50.21
21109;BME280;10712;52.944;9.098;2022-11-09T00:26:31;100472.94;;;20.28;50.21
21109;BME280;10712;52.944;9.098;2022-11-09T00:28:58;100463.31;;;20.26;50.21
21109;BME280;10712;52.944;9.098;2022-11-09T00:31:25;100464.47;;;20.23;50.05
21109;BME280;10712;52.944;9.098;2022-11-09T00:33:54;100467.16;;;20.23;50.24
21109;BME280;10712;52.944;9.098;2022-11-09T00:36:22;100457.66;;;20.19;50.39
21109;BME280;10712;52.944;9.098;2022-11-09T00:38:56;100449.72;;;20.18;50.17
21109;BME280;10712;52.944;9.098;2022-11-09T00:41:22;100450.88;;;20.15;50.15
21109;BME280;10712;52.944;9.098;2022-11-09T00:43:49;100449.16;;;20.14;50.16
21109;BME280;10712;52.944;9.098;2022-11-09T00:46:16;100452.88;;;20.13;50.35
21109;BME280;10712;52.944;9.098;2022-11-09T00:48:43;100444.94;;;20.12;50.16
21109;BME280;10712;52.944;9.098;2022-11-09T00:51:09;100441.53;;;20.10;50.18
21109;BME280;10712;52.944;9.098;2022-11-09T00:53:35;100435.28;;;20.09;50.47
21109;BME280;10712;52.944;9.098;2022-11-09T00:56:09;100439.31;;;20.05;50.37
21109;BME280;10712;52.944;9.098;2022-11-09T00:58:38;100441.19;;;20.04;50.70
21109;BME280;10712;52.944;9.098;2022-11-09T01:01:14;100440.00;;;20.07;50.63
21109;BME280;10712;52.944;9.098;2022-11-09T01:03:43;100448.09;;;20.07;50.65
21109;BME280;10712;52.944;9.098;2022-11-09T01:06:19;100460.63;;;20.08;50.81
21109;BME280;10712;52.944;9.098;2022-11-09T01:08:46;100453.50;;;20.07;50.78
21109;BME280;10712;52.944;9.098;2022-11-09T01:11:16;100461.63;;;20.07;50.70
21109;BME280;10712;52.944;9.098;2022-11-09T01:13:42;100466.03;;;20.08;50.75
21109;BME280;10712;52.944;9.098;2022-11-09T01:16:15;100460.78;;;20.06;50.86
21109;BME280;10712;52.944;9.098;2022-11-09T01:18:42;100464.31;;;20.07;50.77
21109;BME280;10712;52.944;9.098;2022-11-09T01:21:12;100469.75;;;20.07;50.88
21109;BME280;10712;52.944;9.098;2022-11-09T01:23:40;100458.91;;;20.07;50.72
21109;BME280;10712;52.944;9.098;2022-11-09T01:26:10;100463.31;;;20.08;50.78
21109;BME280;10712;52.944;9.098;2022-11-09T01:28:36;100461.63;;;20.07;50.88
21109;BME280;10712;52.944;9.098;2022-11-09T01:31:10;100466.03;;;20.08;51.00
21109;BME280;10712;52.944;9.098;2022-11-09T01:33:37;100455.22;;;20.08;50.97
21109;BME280;10712;52.944;9.098;2022-11-09T01:36:10;100451.50;;;20.09;50.96
21109;BME280;10712;52.944;9.098;2022-11-09T01:38:37;100451.50;;;20.09;51.02
21109;BME280;10712;52.944;9.098;2022-11-09T01:41:10;100453.22;;;20.10;50.91
21109;BME280;10712;52.944;9.098;2022-11-09T01:43:36;100438.69;;;20.11;50.79
21109;BME280;10712;52.944;9.098;2022-11-09T01:46:23;100444.09;;;20.11;51.08
21109;BME280;10712;52.944;9.098;2022-11-09T01:48:59;100448.50;;;20.12;51.02
21109;BME280;10712;52.944;9.098;2022-11-09T01:51:37;100442.06;;;20.13;51.14
21109;BME280;10712;52.944;9.098;2022-11-09T01:54:12;100444.63;;;20.15;51.05
21109;BME280;10712;52.944;9.098;2022-11-09T01:56:41;100438.34;;;20.14;50.86
21109;BME280;10712;52.944;9.098;2022-11-09T01:59:14;100438.34;;;20.14;51.20
21109;BME280;10712;52.944;9.098;2022-11-09T02:01:44;100440.06;;;20.15;51.24
21109;BME280;10712;52.944;9.098;2022-11-09T02:04:29;100442.06;;;20.13;50.95
21109;BME280;10712;52.944;9.098;2022-11-09T02:06:57;100448.16;;;20.15;51.15
21109;BME280;10712;52.944;9.098;2022-11-09T02:10:06;100445.47;;;20.15;51.15
21109;BME280;10712;52.944;9.098;2022-11-09T02:12:27;100447.16;;;20.16;51.09
21109;BME280;10712;52.944;9.098;2022-11-09T02:14:55;100450.56;;;20.18;51.36
21109;BME280;10712;52.944;9.098;2022-11-09T02:17:22;100445.16;;;20.18;51.25
21109;BME280;10712;52.944;9.098;2022-11-09T02:19:49;100447.88;;;20.18;51.40
21109;BME280;10712;52.944;9.098;2022-11-09T02:22:15;100434.34;;;20.18;51.14
21109;BME280;10712;52.944;9.098;2022-11-09T02:24:41;100442.59;;;20.17;51.09
21109;BME280;10712;52.944;9.098;2022-11-09T02:27:07;100443.75;;;20.14;51.42
21109;BME280;10712;52.944;9.098;2022-11-09T02:29:41;100436.66;;;20.13;51.23
21109;BME280;10712;52.944;9.098;2022-11-09T02:32:17;100440.38;;;20.12;51.54
21109;BME280;10712;52.944;9.098;2022-11-09T02:34:45;100437.84;;;20.11;51.28
21109;BME280;10712;52.944;9.098;2022-11-09T02:37:11;100429.88;;;20.09;51.36
21109;BME280;10712;52.944;9.098;2022-11-09T02:39:38;100429.03;;;20.09;51.45
21109;BME280;10712;52.944;9.098;2022-11-09T02:42:13;100431.88;;;20.07;51.35
21109;BME280;10712;52.944;9.098;2022-11-09T02:44:46;100429.50;;;20.04;51.60
21109;BME280;10712;52.944;9.098;2022-11-09T02:47:12;100430.50;;;20.03;51.67
21109;BME280;10712;52.944;9.098;2022-11-09T02:49:39;100427.09;;;20.01;51.52
21109;BME280;10712;52.944;9.098;2022-11-09T02:52:04;100429.09;;;19.99;51.55
21109;BME280;10712;52.944;9.098;2022-11-09T02:54:30;100423.88;;;19.97;51.75
21109;BME280;10712;52.944;9.098;2022-11-09T02:56:57;100429.44;;;19.96;51.73
21109;BME280;10712;52.944;9.098;2022-11-09T02:59:24;100427.72;;;19.95;51.70
21109;BME280;10712;52.944;9.098;2022-11-09T03:01:50;100423.47;;;19.92;51.83
21109;BME280;10712;52.944;9.098;2022-11-09T03:04:16;100426.03;;;19.94;51.72
21109;BME280;10712;52.944;9.098;2022-11-09T03:06:42;100423.47;;;19.92;51.70
21109;BME280;10712;52.944;9.098;2022-11-09T03:09:12;100428.88;;;19.92;51.94
21109;BME280;10712;52.944;9.098;2022-11-09T03:11:40;100423.81;;;19.89;51.71
21109;BME280;10712;52.944;9.098;2022-11-09T03:14:08;100424.97;;;19.87;51.87
21109;BME280;10712;52.944;9.098;2022-11-09T03:16:40;100433.69;;;19.81;52.22
21109;BME280;10712;52.944;9.098;2022-11-09T03:19:06;100426.97;;;19.85;51.79
21109;BME280;10712;52.944;9.098;2022-11-09T03:21:33;100434.06;;;19.86;51.97
21109;BME280;10712;52.944;9.098;2022-11-09T03:23:59;100436.97;;;19.84;52.05
21109;BME280;10712;52.944;9.098;2022-11-09T03:26:25;100435.94;;;19.85;51.97
21109;BME280;10712;52.944;9.098;2022-11-09T03:28:51;100434.94;;;19.86;52.04
21109;BME280;10712;52.944;9.098;2022-11-09T03:31:17;100444.59;;;19.89;52.17
21109;BME280;10712;52.944;9.098;2022-11-09T03:33:45;100439.19;;;19.89;52.20
21109;BME280;10712;52.944;9.098;2022-11-09T03:36:11;100435.06;;;19.85;52.39
21109;BME280;10712;52.944;9.098;2022-11-09T03:38:37;100433.78;;;19.89;52.19
21109;BME280;10712;52.944;9.098;2022-11-09T03:41:03;100434.63;;;19.89;52.14
21109;BME280;10712;52.944;9.098;2022-11-09T03:43:30;100437.47;;;19.88;52.16
21109;BME280;10712;52.944;9.098;2022-11-09T03:45:56;100427.81;;;19.85;52.36
21109;BME280;10712;52.944;9.098;2022-11-09T03:48:22;100435.06;;;19.85;52.43
21109;BME280;10712;52.944;9.098;2022-11-09T03:50:48;100429.84;;;19.83;52.45
21109;BME280;10712;52.944;9.098;2022-11-09T03:53:14;100432.84;;;19.80;52.26
21109;BME280;10712;52.944;9.098;2022-11-09T03:55:40;100436.41;;;19.81;52.53
21109;BME280;10712;52.944;9.098;2022-11-09T03:58:08;100433.84;;;19.79;52.63
21109;BME280;10712;52.944;9.098;2022-11-09T04:00:35;100431.00;;;19.81;52.53
21109;BME280;10712;52.944;9.098;2022-11-09T04:03:01;100431.00;;;19.81;52.52
21109;BME280;10712;52.944;9.098;2022-11-09T04:05:27;100435.56;;;19.80;52.40
21109;BME280;10712;52.944;9.098;2022-11-09T04:07:56;100422.19;;;19.79;52.55
21109;BME280;10712;52.944;9.098;2022-11-09T04:10:24;100436.69;;;19.78;52.64
21109;BME280;10712;52.944;9.098;2022-11-09T04:12:50;100424.03;;;19.78;52.63
21109;BME280;10712;52.944;9.098;2022-11-09T04:15:16;100435.03;;;19.77;52.71
21109;BME280;10712;52.944;9.098;2022-11-09T04:17:42;100428.78;;;19.76;52.58
21109;BME280;10712;52.944;9.098;2022-11-09T04:20:10;100425.22;;;19.76;52.51
21109;BME280;10712;52.944;9.098;2022-11-09T04:22:36;100437.72;;;19.77;52.72
21109;BME280;10712;52.944;9.098;2022-11-09T04:25:03;100434.31;;;19.75;52.56
21109;BME280;10712;52.944;9.098;2022-11-09T04:27:29;100434.47;;;19.73;52.50
21109;BME280;10712;52.944;9.098;2022-11-09T04:29:55;100437.31;;;19.72;52.58
21109;BME280;10712;52.944;9.098;2022-11-09T04:32:22;100441.06;;;19.71;52.41
21109;BME280;10712;52.944;9.098;2022-11-09T04:34:48;100443.06;;;19.69;52.68
21109;BME280;10712;52.944;9.098;2022-11-09T04:37:13;100441.34;;;19.67;52.84
21109;BME280;10712;52.944;9.098;2022-11-09T04:39:39;100450.16;;;19.70;52.68
21109;BME280;10712;52.944;9.098;2022-11-09T04:42:05;100448.13;;;19.72;52.90
21109;BME280;10712;52.944;9.098;2022-11-09T04:44:31;100456.94;;;19.74;52.94
21109;BME280;10712;52.944;9.098;2022-11-09T04:46:56;100464.91;;;19.75;52.83
21109;BME280;10712;52.944;9.098;2022-11-09T04:49:22;100467.75;;;19.74;53.16
21109;BME280;10712;52.944;9.098;2022-11-09T04:51:48;100471.69;;;19.79;52.94
21109;BME280;10712;52.944;9.098;2022-11-09T04:54:14;100465.00;;;19.83;53.05
21109;BME280;10712;52.944;9.098;2022-11-09T04:56:39;100461.81;;;19.88;53.26
21109;BME280;10712;52.944;9.098;2022-11-09T04:59:05;100451.38;;;19.93;53.31
21109;BME280;10712;52.944;9.098;2022-11-09T05:01:31;100460.19;;;19.95;53.19
21109;BME280;10712;52.944;9.098;2022-11-09T05:03:57;100463.59;;;19.97;53.47
21109;BME280;10712;52.944;9.098;2022-11-09T05:06:23;100456.16;;;19.99;53.38
21109;BME280;10712;52.944;9.098;2022-11-09T05:09:00;100448.03;;;19.99;53.29
21109;BME280;10712;52.944;9.098;2022-11-09T05:11:27;100446.59;;;20.04;53.10
21109;BME280;10712;52.944;9.098;2022-11-09T05:13:53;100452.03;;;20.13;53.36
21109;BME280;10712;52.944;9.098;2022-11-09T05:16:19;100447.16;;;20.16;53.16
21109;BME280;10712;52.944;9.098;2022-11-09T05:18:46;100445.16;;;20.18;52.97
21109;BME280;10712;52.944;9.098;2022-11-09T05:21:12;100453.63;;;20.23;53.11
21109;BME280;10712;52.944;9.098;2022-11-09T05:23:38;100446.84;;;20.19;53.07
21109;BME280;10712;52.944;9.098;2022-11-09T05:26:22;100443.66;;;20.24;53.28
21109;BME280;10712;52.944;9.098;2022-11-09T05:28:48;100435.56;;;20.24;53.21
21109;BME280;10712;52.944;9.098;2022-11-09T05:31:14;100441.31;;;20.29;52.82
21109;BME280;10712;52.944;9.098;2022-11-09T05:33:39;100447.28;;;20.32;52.77
21109;BME280;10712;52.944;9.098;2022-11-09T05:36:05;100440.72;;;20.35;52.77
21109;BME280;10712;52.944;9.098;2022-11-09T05:38:31;100445.97;;;20.36;52.67
21109;BME280;10712;52.944;9.098;2022-11-09T05:40:57;100437.56;;;20.39;52.71
21109;BME280;10712;52.944;9.098;2022-11-09T05:43:23;100433.50;;;20.43;52.49
21109;BME280;10712;52.944;9.098;2022-11-09T05:45:49;100442.31;;;20.46;52.89
21109;BME280;10712;52.944;9.098;2022-11-09T05:48:17;100440.97;;;20.50;52.50
21109;BME280;10712;52.944;9.098;2022-11-09T05:50:43;100461.31;;;20.54;52.49
21109;BME280;10712;52.944;9.098;2022-11-09T05:53:17;100468.09;;;20.58;52.61
21109;BME280;10712;52.944;9.098;2022-11-09T05:55:42;100474.03;;;20.61;52.32
21109;BME280;10712;52.944;9.098;2022-11-09T05:58:08;100468.63;;;20.61;52.36
21109;BME280;10712;52.944;9.098;2022-11-09T06:00:35;100476.56;;;20.63;52.31
21109;BME280;10712;52.944;9.098;2022-11-09T06:03:09;100485.41;;;20.65;51.93
21109;BME280;10712;52.944;9.098;2022-11-09T06:05:39;100479.84;;;20.66;52.04
21109;BME280;10712;52.944;9.098;2022-11-09T06:08:10;100488.81;;;20.67;52.23
21109;BME280;10712;52.944;9.098;2022-11-09T06:10:36;100485.06;;;20.68;51.93
21109;BME280;10712;52.944;9.098;2022-11-09T06:13:02;100496.44;;;20.71;51.87
21109;BME280;10712;52.944;9.098;2022-11-09T06:15:28;100488.16;;;20.73;51.97
21109;BME280;10712;52.944;9.098;2022-11-09T06:17:56;100493.94;;;20.78;51.90
21109;BME280;10712;52.944;9.098;2022-11-09T06:20:23;100498.34;;;20.79;52.02
21109;BME280;10712;52.944;9.098;2022-11-09T06:22:58;100494.28;;;20.83;51.51
21109;BME280;10712;52.944;9.098;2022-11-09T06:25:24;100495.34;;;20.90;51.61
21109;BME280;10712;52.944;9.098;2022-11-09T06:27:53;100499.44;;;20.94;51.32
21109;BME280;10712;52.944;9.098;2022-11-09T06:30:20;100507.22;;;20.97;51.40
21109;BME280;10712;52.944;9.098;2022-11-09T06:32:46;100509.47;;;21.02;51.44
21109;BME280;10712;52.944;9.098;2022-11-09T06:35:13;100511.69;;;21.06;51.09
21109;BME280;10712;52.944;9.098;2022-11-09T06:37:39;100515.94;;;21.09;51.20
21109;BME280;10712;52.944;9.098;2022-11-09T06:40:06;100509.66;;;21.08;51.13
21109;BME280;10712;52.944;9.098;2022-11-09T06:42:32;100512.72;;;21.13;50.96
21109;BME280;10712;52.944;9.098;2022-11-09T06:44:57;100511.03;;;21.12;50.67
21109;BME280;10712;52.944;9.098;2022-11-09T06:47:23;100512.88;;;21.12;50.92
21109;BME280;10712;52.944;9.098;2022-11-09T06:49:49;100517.28;;;21.13;50.85
21109;BME280;10712;52.944;9.098;2022-11-09T06:52:15;100522.72;;;21.13;50.44
21109;BME280;10712;52.944;9.098;2022-11-09T06:54:40;100515.13;;;21.16;50.38
21109;BME280;10712;52.944;9.098;2022-11-09T06:57:06;100513.66;;;21.22;50.09
21109;BME280;10712;52.944;9.098;2022-11-09T06:59:33;100523.13;;;21.26;49.74
21109;BME280;10712;52.944;9.098;2022-11-09T07:01:59;100521.13;;;21.28;49.50
21109;BME280;10712;52.944;9.098;2022-11-09T07:04:25;100515.03;;;21.34;49.50
21109;BME280;10712;52.944;9.098;2022-11-09T07:06:51;100518.56;;;21.27;49.56
21109;BME280;10712;52.944;9.098;2022-11-09T07:09:16;100518.03;;;21.23;49.61
21109;BME280;10712;52.944;9.098;2022-11-09T07:11:42;100526.00;;;21.25;49.37
21109;BME280;10712;52.944;9.098;2022-11-09T07:14:08;100530.56;;;21.24;49.50
21109;BME280;10712;52.944;9.098;2022-11-09T07:16:34;100526.34;;;21.21;49.46
21109;BME280;10712;52.944;9.098;2022-11-09T07:19:00;100533.78;;;21.19;49.61
21109;BME280;10712;52.944;9.098;2022-11-09T07:21:25;100531.41;;;21.25;49.67
21109;BME280;10712;52.944;9.098;2022-11-09T07:23:51;100537.81;;;21.15;49.73
21109;BME280;10712;52.944;9.098;2022-11-09T07:26:17;100538.75;;;21.06;49.96
21109;BME280;10712;52.944;9.098;2022-11-09T07:28:43;100541.13;;;21.01;50.29
21109;BME280;10712;52.944;9.098;2022-11-09T07:31:09;100534.00;;;21.00;50.50
21109;BME280;10712;52.944;9.098;2022-11-09T07:33:35;100541.44;;;20.98;50.60
21109;BME280;10712;52.944;9.098;2022-11-09T07:36:03;100542.59;;;20.96;50.55
21109;BME280;10712;52.944;9.098;2022-11-09T07:38:30;100543.78;;;20.93;50.64
21109;BME280;10712;52.944;9.098;2022-11-09T07:40:59;100548.19;;;20.94;50.81
21109;BME280;10712;52.944;9.098;2022-11-09T07:43:28;100539.72;;;20.97;50.63
21109;BME280;10712;52.944;9.098;2022-11-09T07:45:56;100550.56;;;20.97;50.71
21109;BME280;10712;52.944;9.098;2022-11-09T07:48:22;100561.38;;;20.97;50.63
21109;BME280;10712;52.944;9.098;2022-11-09T07:50:48;100559.38;;;20.99;50.33
21109;BME280;10712;52.944;9.098;2022-11-09T07:53:15;100567.16;;;20.94;50.38
21109;BME280;10712;52.944;9.098;2022-11-09T07:55:41;100560.66;;;20.87;50.64
21109;BME280;10712;52.944;9.098;2022-11-09T07:58:12;100566.38;;;20.84;50.71
21109;BME280;10712;52.944;9.098;2022-11-09T08:00:40;100570.50;;;20.88;50.60
21109;BME280;10712;52.944;9.098;2022-11-09T08:03:07;100565.88;;;20.80;50.69
21109;BME280;10712;52.944;9.098;2022-11-09T08:05:35;100564.03;;;20.81;50.46
21109;BME280;10712;52.944;9.098;2022-11-09T08:08:06;100567.03;;;20.78;50.79
21109;BME280;10712;52.944;9.098;2022-11-09T08:10:33;100566.50;;;20.74;50.70
21109;BME280;10712;52.944;9.098;2022-11-09T08:13:04;100574.78;;;20.73;50.82
21109;BME280;10712;52.944;9.098;2022-11-09T08:15:30;100567.66;;;20.72;50.71
21109;BME280;10712;52.944;9.098;2022-11-09T08:18:02;100574.34;;;20.60;51.32
21109;BME280;10712;52.944;9.098;2022-11-09T08:20:29;100570.72;;;20.51;51.18
21109;BME280;10712;52.944;9.098;2022-11-09T08:22:56;100579.44;;;20.27;52.06
21109;BME280;10712;52.944;9.098;2022-11-09T08:25:22;100573.91;;;20.11;52.73
21109;BME280;10712;52.944;9.098;2022-11-09T08:27:48;100573.72;;;20.66;51.16
21109;BME280;10712;52.944;9.098;2022-11-09T08:30:23;100570.38;;;20.72;51.08
21109;BME280;10712;52.944;9.098;2022-11-09T08:32:49;100577.09;;;20.68;51.48
21109;BME280;10712;52.944;9.098;2022-11-09T08:35:19;100580.19;;;20.73;51.07
21109;BME280;10712;52.944;9.098;2022-11-09T08:37:49;100585.56;;;20.65;51.45
21109;BME280;10712;52.944;9.098;2022-11-09T08:40:19;100587.31;;;20.74;51.65
21109;BME280;10712;52.944;9.098;2022-11-09T08:42:45;100590.81;;;20.49;51.98
21109;BME280;10712;52.944;9.098;2022-11-09T08:45:12;100597.09;;;20.31;52.85
21109;BME280;10712;52.944;9.098;2022-11-09T08:47:38;100590.97;;;20.29;53.28
21109;BME280;10712;52.944;9.098;2022-11-09T08:50:06;100587.69;;;20.35;53.38
21109;BME280;10712;52.944;9.098;2022-11-09T08:52:33;100584.25;;;20.51;52.80
21109;BME280;10712;52.944;9.098;2022-11-09T08:54:59;100587.19;;;20.58;52.38
21109;BME280;10712;52.944;9.098;2022-11-09T08:57:25;100588.47;;;20.46;53.06
21109;BME280;10712;52.944;9.098;2022-11-09T08:59:51;100596.16;;;20.40;52.91
21109;BME280;10712;52.944;9.098;2022-11-09T09:02:17;100593.69;;;20.65;52.32
21109;BME280;10712;52.944;9.098;2022-11-09T09:04:43;100586.75;;;20.88;51.79
21109;BME280;10712;52.944;9.098;2022-11-09T09:07:09;100595.16;;;20.85;51.94
21109;BME280;10712;52.944;9.098;2022-11-09T09:09:35;100585.50;;;20.82;51.85
21109;BME280;10712;52.944;9.098;2022-11-09T09:12:04;100599.63;;;20.94;51.58
21109;BME280;10712;52.944;9.098;2022-11-09T09:14:30;100603.81;;;20.89;51.81
21109;BME280;10712;52.944;9.098;2022-11-09T09:16:56;100601.66;;;20.92;51.83
21109;BME280;10712;52.944;9.098;2022-11-09T09:19:23;100603.78;;;21.06;51.16
21109;BME280;10712;52.944;9.098;2022-11-09T09:21:49;100603.44;;;21.09;51.48
21109;BME280;10712;52.944;9.098;2022-11-09T09:24:15;100603.97;;;21.13;51.25
21109;BME280;10712;52.944;9.098;2022-11-09T09:26:41;100602.50;;;21.18;51.21
21109;BME280;10712;52.944;9.098;2022-11-09T09:29:08;100616.41;;;21.23;51.20
21109;BME280;10712;52.944;9.098;2022-11-09T09:31:36;100608.13;;;21.25;51.12
21109;BME280;10712;52.944;9.098;2022-11-09T09:34:02;100610.38;;;21.30;51.08
21109;BME280;10712;52.944;9.098;2022-11-09T09:36:28;100604.97;;;21.30;51.12
21109;BME280;10712;52.944;9.098;2022-11-09T09:38:55;100616.16;;;21.35;50.79
21109;BME280;10712;52.944;9.098;2022-11-09T09:41:52;100622.94;;;21.39;50.63
21109;BME280;10712;52.944;9.098;2022-11-09T09:47:21;100625.53;;;21.48;50.42
21109;BME280;10712;52.944;9.098;2022-11-09T09:50:28;100622.00;;;21.56;50.32
21109;BME280;10712;52.944;9.098;2022-11-09T09:53:29;100629.53;;;21.70;49.85
21109;BME280;10712;52.944;9.098;2022-11-09T09:56:05;100630.88;;;21.74;50.05
21109;BME280;10712;52.944;9.098;2022-11-09T09:58:37;100629.03;;;21.75;49.70
21109;BME280;10712;52.944;9.098;2022-11-09T10:01:17;100636.66;;;21.79;49.70
21109;BME280;10712;52.944;9.098;2022-11-09T10:03:46;100635.38;;;21.91;49.19
21109;BME280;10712;52.944;9.098;2022-11-09T10:09:32;100639.31;;;21.97;48.29
21109;BME280;10712;52.944;9.098;2022-11-09T10:18:26;100637.44;;;21.97;47.96
21109;BME280;10712;52.944;9.098;2022-11-09T10:21:46;100640.75;;;21.83;48.12
21109;BME280;10712;52.944;9.098;2022-11-09T10:24:38;100635.69;;;21.88;48.14
21109;BME280;10712;52.944;9.098;2022-11-09T10:27:45;100635.41;;;21.99;47.95
21109;BME280;10712;52.944;9.098;2022-11-09T10:30:16;100631.00;;;22.07;47.69
21109;BME280;10712;52.944;9.098;2022-11-09T10:32:50;100617.44;;;22.07;47.92
21109;BME280;10712;52.944;9.098;2022-11-09T10:35:28;100615.59;;;22.15;47.90
21109;BME280;10712;52.944;9.098;2022-11-09T10:37:54;100618.16;;;22.25;47.76
21109;BME280;10712;52.944;9.098;2022-11-09T10:40:33;100613.78;;;22.32;47.70
21109;BME280;10712;52.944;9.098;2022-11-09T10:43:22;100607.50;;;22.39;47.46
21109;BME280;10712;52.944;9.098;2022-11-09T10:46:07;100611.72;;;22.42;47.25
21109;BME280;10712;52.944;9.098;2022-11-09T10:48:53;100608.53;;;22.47;46.99
21109;BME280;10712;52.944;9.098;2022-11-09T10:51:43;100610.03;;;22.49;46.59
21109;BME280;10712;52.944;9.098;2022-11-09T10:54:35;100613.25;;;22.45;46.95
21109;BME280;10712;52.944;9.098;2022-11-09T10:57:23;100609.38;;;22.47;46.95
21109;BME280;10712;52.944;9.098;2022-11-09T11:00:18;100610.38;;;22.46;46.81
21109;BME280;10712;52.944;9.098;2022-11-09T11:03:16;100610.88;;;22.50;46.27
21109;BME280;10712;52.944;9.098;2022-11-09T11:06:14;100613.44;;;22.51;46.09
21109;BME280;10712;52.944;9.098;2022-11-09T11:09:15;100610.56;;;22.53;45.90
21109;BME280;10712;52.944;9.098;2022-11-09T11:12:18;100615.13;;;22.60;45.48
21109;BME280;10712;52.944;9.098;2022-11-09T11:15:25;100615.47;;;22.65;44.92
21109;BME280;10712;52.944;9.098;2022-11-09T11:18:23;100608.00;;;22.84;44.45
21109;BME280;10712;52.944;9.098;2022-11-09T11:21:18;100607.66;;;22.87;44.54
21109;BME280;10712;52.944;9.098;2022-11-09T11:24:19;100603.59;;;22.91;44.58
21109;BME280;10712;52.944;9.098;2022-11-09T11:27:10;100603.25;;;22.94;44.23
21109;BME280;10712;52.944;9.098;2022-11-09T11:30:05;100606.97;;;22.93;44.01
21109;BME280;10712;52.944;9.098;2022-11-09T11:32:55;100607.66;;;22.95;43.98
21109;BME280;10712;52.944;9.098;2022-11-09T11:35:57;100607.31;;;22.98;44.13
21109;BME280;10712;52.944;9.098;2022-11-09T11:42:38;100610.13;;;23.29;43.25
21109;BME280;10712;52.944;9.098;2022-11-09T11:49:04;100619.19;;;22.97;43.84
21109;BME280;10712;52.944;9.098;2022-11-09T11:55:32;100616.16;;;22.92;43.88
21109;BME280;10712;52.944;9.098;2022-11-09T11:58:47;100621.94;;;22.81;43.92
21109;BME280;10712;52.944;9.098;2022-11-09T12:08:27;100610.06;;;22.82;43.58
21109;BME280;10712;52.944;9.098;2022-11-09T12:14:45;100606.19;;;23.47;42.57
21109;BME280;10712;52.944;9.098;2022-11-09T12:27:42;100608.09;;;23.78;41.97
21109;BME280;10712;52.944;9.098;2022-11-09T12:34:45;100609.06;;;23.85;42.11
21109;BME280;10712;52.944;9.098;2022-11-09T12:37:39;100610.06;;;23.92;42.01
21109;BME280;10712;52.944;9.098;2022-11-09T12:40:38;100607.84;;;23.87;42.11
21109;BME280;10712;52.944;9.098;2022-11-09T12:43:53;100614.50;;;23.85;41.96
21109;BME280;10712;52.944;9.098;2022-11-09T12:47:20;100606.34;;;23.85;41.97
21109;BME280;10712;52.944;9.098;2022-11-09T12:50:11;100613.06;;;23.97;41.99
21109;BME280;10712;52.944;9.098;2022-11-09T12:52:58;100600.44;;;24.04;41.91
21109;BME280;10712;52.944;9.098;2022-11-09T13:02:29;100614.84;;;23.82;40.41
21109;BME280;10712;52.944;9.098;2022-11-09T13:05:37;100621.00;;;23.76;40.79
21109;BME280;10712;52.944;9.098;2022-11-09T13:08:27;100612.47;;;23.79;40.66
21109;BME280;10712;52.944;9.098;2022-11-09T13:23:37;100612.28;;;23.41;41.42
21109;BME280;10712;52.944;9.098;2022-11-09T13:34:59;100623.97;;;23.58;41.01
21109;BME280;10712;52.944;9.098;2022-11-09T13:43:24;100633.66;;;23.61;40.66
21109;BME280;10712;52.944;9.098;2022-11-09T13:46:25;100629.41;;;23.58;40.78
21109;BME280;10712;52.944;9.098;2022-11-09T13:49:40;100633.31;;;23.64;40.38
21109;BME280;10712;52.944;9.098;2022-11-09T13:52:48;100638.47;;;23.50;40.43
21109;BME280;10712;52.944;9.098;2022-11-09T13:55:40;100634.69;;;23.51;39.94
21109;BME280;10712;52.944;9.098;2022-11-09T13:58:37;100645.09;;;23.48;39.76
21109;BME280;10712;52.944;9.098;2022-11-09T14:01:33;100649.34;;;23.42;39.91
21109;BME280;10712;52.944;9.098;2022-11-09T14:04:27;100648.66;;;23.40;40.14
21109;BME280;10712;52.944;9.098;2022-11-09T14:07:26;100641.69;;;23.38;39.72
21109;BME280;10712;52.944;9.098;2022-11-09T14:17:11;100643.06;;;23.34;39.66
21109;BME280;10712;52.944;9.098;2022-11-09T14:23:01;100643.91;;;23.34;40.05
21109;BME280;10712;52.944;9.098;2022-11-09T14:25:46;100649.69;;;23.31;39.81
21109;BME280;10712;52.944;9.098;2022-11-09T14:28:34;100654.47;;;23.29;39.98
21109;BME280;10712;52.944;9.098;2022-11-09T14:31:29;100652.44;;;23.23;40.25
21109;BME280;10712;52.944;9.098;2022-11-09T14:34:15;100645.66;;;23.19;40.18
21109;BME280;10712;52.944;9.098;2022-11-09T14:37:00;100654.50;;;23.13;40.08
21109;BME280;10712;52.944;9.098;2022-11-09T14:39:50;100647.19;;;23.13;39.97
21109;BME280;10712;52.944;9.098;2022-11-09T14:42:35;100658.59;;;23.01;40.36
21109;BME280;10712;52.944;9.098;2022-11-09T14:45:20;100660.63;;;22.99;40.27
21109;BME280;10712;52.944;9.098;2022-11-09T14:48:05;100653.84;;;22.95;40.18
21109;BME280;10712;52.944;9.098;2022-11-09T14:50:53;100653.00;;;22.94;40.28
21109;BME280;10712;52.944;9.098;2022-11-09T14:53:41;100658.06;;;22.89;40.48
21109;BME280;10712;52.944;9.098;2022-11-09T14:56:27;100662.34;;;22.84;40.41